sensor_id;sensor_type;location;lat;lon;timestamp;P1;durP1;ratioP1;P2;durP2;ratioP2
57635;SDS011;43465;50.728;4.160;2023-05-20T00:01:09;10.25;;;4.80;;
57635;SDS011;43465;50.728;4.160;2023-05-20T00:03:35;10.07;;;5.10;;
57635;SDS011;43465;50.728;4.160;2023-05-20T00:06:01;9.68;;;4.88;;
57635;SDS011;43465;50.728;4.160;2023-05-20T00:08:26;6.95;;;4.85;;
57635;SDS011;43465;50.728;4.160;2023-05-20T00:10:52;8.45;;;4.68;;
57635;SDS011;43465;50.728;4.160;2023-05-20T00:13:18;7.85;;;4.95;;
57635;SDS011;43465;50.728;4.160;2023-05-20T00:15:44;6.82;;;4.95;;
57635;SDS011;43465;50.728;4.160;2023-05-20T00:18:09;9.50;;;5.20;;
57635;SDS011;43465;50.728;4.160;2023-05-20T00:20:35;9.20;;;5.07;;
57635;SDS011;43465;50.728;4.160;2023-05-20T00:23:01;10.88;;;5.63;;
57635;SDS011;43465;50.728;4.160;2023-05-20T00:25:26;11.65;;;5.07;;
57635;SDS011;43465;50.728;4.160;2023-05-20T00:27:52;7.72;;;5.50;;
57635;SDS011;43465;50.728;4.160;2023-05-20T00:30:18;9.27;;;5.70;;
57635;SDS011;43465;50.728;4.160;2023-05-20T00:32:43;8.60;;;5.15;;
57635;SDS011;43465;50.728;4.160;2023-05-20T00:35:09;10.90;;;5.60;;
57635;SDS011;43465;50.728;4.160;2023-05-20T00:37:35;7.40;;;5.57;;
57635;SDS011;43465;50.728;4.160;2023-05-20T00:40:01;11.70;;;5.65;;
57635;SDS011;43465;50.728;4.160;2023-05-20T00:42:27;9.40;;;5.40;;
57635;SDS011;43465;50.728;4.160;2023-05-20T00:44:53;10.77;;;6.07;;
57635;SDS011;43465;50.728;4.160;2023-05-20T00:47:22;9.45;;;6.05;;
57635;SDS011;43465;50.728;4.160;2023-05-20T00:49:50;9.18;;;5.68;;
57635;SDS011;43465;50.728;4.160;2023-05-20T00:52:19;12.82;;;6.50;;
57635;SDS011;43465;50.728;4.160;2023-05-20T00:54:46;11.45;;;6.30;;
57635;SDS011;43465;50.728;4.160;2023-05-20T00:57:13;11.60;;;6.70;;
57635;SDS011;43465;50.728;4.160;2023-05-20T00:59:40;7.70;;;5.53;;
57635;SDS011;43465;50.728;4.160;2023-05-20T01:02:06;8.75;;;5.88;;
57635;SDS011;43465;50.728;4.160;2023-05-20T01:04:32;8.40;;;5.43;;
57635;SDS011;43465;50.728;4.160;2023-05-20T01:06:58;8.63;;;5.43;;
57635;SDS011;43465;50.728;4.160;2023-05-20T01:09:26;12.07;;;5.45;;
57635;SDS011;43465;50.728;4.160;2023-05-20T01:15:06;12.20;;;5.60;;
57635;SDS011;43465;50.728;4.160;2023-05-20T01:17:35;7.90;;;5.47;;
57635;SDS011;43465;50.728;4.160;2023-05-20T01:20:08;7.25;;;5.40;;
57635;SDS011;43465;50.728;4.160;2023-05-20T01:22:48;9.65;;;5.07;;
57635;SDS011;43465;50.728;4.160;2023-05-20T01:25:16;9.25;;;5.38;;
57635;SDS011;43465;50.728;4.160;2023-05-20T01:27:42;7.25;;;5.72;;
57635;SDS011;43465;50.728;4.160;2023-05-20T01:30:08;6.15;;;4.90;;
57635;SDS011;43465;50.728;4.160;2023-05-20T01:32:40;8.70;;;5.35;;
57635;SDS011;43465;50.728;4.160;2023-05-20T01:35:08;7.57;;;5.10;;
57635;SDS011;43465;50.728;4.160;2023-05-20T01:37:37;9.00;;;4.90;;
57635;SDS011;43465;50.728;4.160;2023-05-20T01:40:07;7.88;;;5.15;;
57635;SDS011;43465;50.728;4.160;2023-05-20T01:42:35;9.57;;;4.60;;
57635;SDS011;43465;50.728;4.160;2023-05-20T01:45:02;6.82;;;4.93;;
57635;SDS011;43465;50.728;4.160;2023-05-20T01:47:29;9.32;;;5.13;;
57635;SDS011;43465;50.728;4.160;2023-05-20T01:49:55;9.93;;;4.68;;
57635;SDS011;43465;50.728;4.160;2023-05-20T01:52:21;5.68;;;4.40;;
57635;SDS011;43465;50.728;4.160;2023-05-20T01:54:47;5.82;;;4.78;;
57635;SDS011;43465;50.728;4.160;2023-05-20T01:57:22;7.35;;;5.07;;
57635;SDS011;43465;50.728;4.160;2023-05-20T01:59:48;10.40;;;5.00;;
57635;SDS011;43465;50.728;4.160;2023-05-20T02:02:14;8.75;;;4.75;;
57635;SDS011;43465;50.728;4.160;2023-05-20T02:04:41;6.43;;;4.93;;
57635;SDS011;43465;50.728;4.160;2023-05-20T02:07:11;8.15;;;4.75;;
57635;SDS011;43465;50.728;4.160;2023-05-20T02:09:38;7.28;;;4.55;;
57635;SDS011;43465;50.728;4.160;2023-05-20T02:12:04;8.95;;;5.07;;
57635;SDS011;43465;50.728;4.160;2023-05-20T02:14:31;7.25;;;4.93;;
57635;SDS011;43465;50.728;4.160;2023-05-20T02:16:56;9.40;;;5.10;;
57635;SDS011;43465;50.728;4.160;2023-05-20T02:19:22;12.57;;;5.30;;
57635;SDS011;43465;50.728;4.160;2023-05-20T02:21:48;6.35;;;4.95;;
57635;SDS011;43465;50.728;4.160;2023-05-20T02:24:14;11.80;;;5.47;;
57635;SDS011;43465;50.728;4.160;2023-05-20T02:26:40;8.85;;;5.00;;
57635;SDS011;43465;50.728;4.160;2023-05-20T02:29:06;7.55;;;5.50;;
57635;SDS011;43465;50.728;4.160;2023-05-20T02:31:32;8.00;;;5.40;;
57635;SDS011;43465;50.728;4.160;2023-05-20T02:33:58;9.52;;;6.07;;
57635;SDS011;43465;50.728;4.160;2023-05-20T02:36:23;9.80;;;5.50;;
57635;SDS011;43465;50.728;4.160;2023-05-20T02:38:49;8.00;;;5.40;;
57635;SDS011;43465;50.728;4.160;2023-05-20T02:41:15;9.70;;;5.35;;
57635;SDS011;43465;50.728;4.160;2023-05-20T02:43:41;6.45;;;5.25;;
57635;SDS011;43465;50.728;4.160;2023-05-20T02:46:08;10.93;;;5.97;;
57635;SDS011;43465;50.728;4.160;2023-05-20T02:48:34;8.07;;;5.32;;
57635;SDS011;43465;50.728;4.160;2023-05-20T02:51:00;7.20;;;5.18;;
57635;SDS011;43465;50.728;4.160;2023-05-20T02:53:25;9.82;;;5.70;;
57635;SDS011;43465;50.728;4.160;2023-05-20T02:55:51;8.07;;;5.20;;
57635;SDS011;43465;50.728;4.160;2023-05-20T02:58:18;9.63;;;5.80;;
57635;SDS011;43465;50.728;4.160;2023-05-20T03:00:50;8.32;;;5.65;;
57635;SDS011;43465;50.728;4.160;2023-05-20T03:03:16;6.43;;;5.15;;
57635;SDS011;43465;50.728;4.160;2023-05-20T03:05:41;7.78;;;5.25;;
57635;SDS011;43465;50.728;4.160;2023-05-20T03:08:10;7.53;;;5.35;;
57635;SDS011;43465;50.728;4.160;2023-05-20T03:10:36;8.13;;;5.30;;
57635;SDS011;43465;50.728;4.160;2023-05-20T03:13:03;7.40;;;5.10;;
57635;SDS011;43465;50.728;4.160;2023-05-20T03:15:32;6.18;;;4.82;;
57635;SDS011;43465;50.728;4.160;2023-05-20T03:17:59;5.60;;;5.03;;
57635;SDS011;43465;50.728;4.160;2023-05-20T03:20:25;6.45;;;5.10;;
57635;SDS011;43465;50.728;4.160;2023-05-20T03:22:51;7.68;;;5.13;;
57635;SDS011;43465;50.728;4.160;2023-05-20T03:25:16;9.32;;;4.78;;
57635;SDS011;43465;50.728;4.160;2023-05-20T03:27:42;5.82;;;4.72;;
57635;SDS011;43465;50.728;4.160;2023-05-20T03:30:08;8.00;;;4.40;;
57635;SDS011;43465;50.728;4.160;2023-05-20T03:32:34;8.88;;;5.05;;
57635;SDS011;43465;50.728;4.160;2023-05-20T03:35:00;8.02;;;5.15;;
57635;SDS011;43465;50.728;4.160;2023-05-20T03:37:27;7.78;;;5.00;;
57635;SDS011;43465;50.728;4.160;2023-05-20T03:39:52;9.15;;;4.97;;
57635;SDS011;43465;50.728;4.160;2023-05-20T03:42:18;6.95;;;4.93;;
57635;SDS011;43465;50.728;4.160;2023-05-20T03:44:44;6.35;;;4.82;;
57635;SDS011;43465;50.728;4.160;2023-05-20T03:47:09;7.20;;;5.10;;
57635;SDS011;43465;50.728;4.160;2023-05-20T03:49:35;6.22;;;4.55;;
57635;SDS011;43465;50.728;4.160;2023-05-20T03:52:00;9.32;;;4.75;;
57635;SDS011;43465;50.728;4.160;2023-05-20T03:54:27;7.63;;;5.00;;
57635;SDS011;43465;50.728;4.160;2023-05-20T03:56:55;8.75;;;4.90;;
57635;SDS011;43465;50.728;4.160;2023-05-20T03:59:21;7.32;;;4.88;;
57635;SDS011;43465;50.728;4.160;2023-05-20T04:01:47;7.32;;;5.03;;
57635;SDS011;43465;50.728;4.160;2023-05-20T04:04:12;6.55;;;5.30;;
57635;SDS011;43465;50.728;4.160;2023-05-20T04:06:38;13.30;;;5.40;;
57635;SDS011;43465;50.728;4.160;2023-05-20T04:09:04;9.73;;;5.07;;
57635;SDS011;43465;50.728;4.160;2023-05-20T04:11:30;8.23;;;4.82;;
57635;SDS011;43465;50.728;4.160;2023-05-20T04:13:56;8.13;;;4.95;;
57635;SDS011;43465;50.728;4.160;2023-05-20T04:16:24;10.93;;;5.10;;
57635;SDS011;43465;50.728;4.160;2023-05-20T04:18:50;10.93;;;5.45;;
57635;SDS011;43465;50.728;4.160;2023-05-20T04:21:16;8.10;;;5.22;;
57635;SDS011;43465;50.728;4.160;2023-05-20T04:23:43;7.88;;;4.63;;
57635;SDS011;43465;50.728;4.160;2023-05-20T04:26:08;7.68;;;4.95;;
57635;SDS011;43465;50.728;4.160;2023-05-20T04:28:34;7.07;;;5.15;;
57635;SDS011;43465;50.728;4.160;2023-05-20T04:31:01;9.35;;;5.15;;
57635;SDS011;43465;50.728;4.160;2023-05-20T04:33:30;9.45;;;5.35;;
57635;SDS011;43465;50.728;4.160;2023-05-20T04:35:56;9.98;;;4.90;;
57635;SDS011;43465;50.728;4.160;2023-05-20T04:38:26;9.70;;;5.75;;
57635;SDS011;43465;50.728;4.160;2023-05-20T04:40:54;7.70;;;5.15;;
57635;SDS011;43465;50.728;4.160;2023-05-20T04:43:25;7.78;;;5.10;;
57635;SDS011;43465;50.728;4.160;2023-05-20T04:45:54;9.85;;;5.30;;
57635;SDS011;43465;50.728;4.160;2023-05-20T04:48:20;7.72;;;4.95;;
57635;SDS011;43465;50.728;4.160;2023-05-20T04:50:49;8.55;;;5.32;;
57635;SDS011;43465;50.728;4.160;2023-05-20T04:53:18;10.45;;;5.72;;
57635;SDS011;43465;50.728;4.160;2023-05-20T04:55:45;7.80;;;5.00;;
57635;SDS011;43465;50.728;4.160;2023-05-20T04:58:12;7.90;;;5.68;;
57635;SDS011;43465;50.728;4.160;2023-05-20T05:00:44;12.57;;;5.57;;
57635;SDS011;43465;50.728;4.160;2023-05-20T05:03:10;11.63;;;5.60;;
57635;SDS011;43465;50.728;4.160;2023-05-20T05:05:39;10.52;;;5.63;;
57635;SDS011;43465;50.728;4.160;2023-05-20T05:08:06;10.18;;;5.63;;
57635;SDS011;43465;50.728;4.160;2023-05-20T05:10:32;9.98;;;5.00;;
57635;SDS011;43465;50.728;4.160;2023-05-20T05:12:58;8.20;;;5.18;;
57635;SDS011;43465;50.728;4.160;2023-05-20T05:15:24;9.15;;;5.20;;
57635;SDS011;43465;50.728;4.160;2023-05-20T05:17:50;6.97;;;5.38;;
57635;SDS011;43465;50.728;4.160;2023-05-20T05:20:16;8.60;;;5.57;;
57635;SDS011;43465;50.728;4.160;2023-05-20T05:22:42;11.40;;;5.68;;
57635;SDS011;43465;50.728;4.160;2023-05-20T05:25:08;7.82;;;5.45;;
57635;SDS011;43465;50.728;4.160;2023-05-20T05:27:35;12.77;;;5.40;;
57635;SDS011;43465;50.728;4.160;2023-05-20T05:30:01;12.50;;;6.07;;
57635;SDS011;43465;50.728;4.160;2023-05-20T05:32:27;7.30;;;5.55;;
57635;SDS011;43465;50.728;4.160;2023-05-20T05:34:53;7.88;;;5.68;;
57635;SDS011;43465;50.728;4.160;2023-05-20T05:37:19;7.65;;;5.63;;
57635;SDS011;43465;50.728;4.160;2023-05-20T05:39:45;10.48;;;5.65;;
57635;SDS011;43465;50.728;4.160;2023-05-20T05:42:10;10.40;;;6.50;;
57635;SDS011;43465;50.728;4.160;2023-05-20T05:44:36;8.90;;;5.93;;
57635;SDS011;43465;50.728;4.160;2023-05-20T05:47:02;10.40;;;5.63;;
57635;SDS011;43465;50.728;4.160;2023-05-20T05:49:27;9.43;;;6.03;;
57635;SDS011;43465;50.728;4.160;2023-05-20T05:51:53;8.25;;;5.65;;
57635;SDS011;43465;50.728;4.160;2023-05-20T05:54:19;12.15;;;5.97;;
57635;SDS011;43465;50.728;4.160;2023-05-20T05:56:45;9.68;;;5.82;;
57635;SDS011;43465;50.728;4.160;2023-05-20T05:59:11;7.88;;;5.05;;
57635;SDS011;43465;50.728;4.160;2023-05-20T06:01:36;8.88;;;5.70;;
57635;SDS011;43465;50.728;4.160;2023-05-20T06:04:02;7.95;;;5.68;;
57635;SDS011;43465;50.728;4.160;2023-05-20T06:06:28;8.27;;;5.63;;
57635;SDS011;43465;50.728;4.160;2023-05-20T06:08:55;7.75;;;6.25;;
57635;SDS011;43465;50.728;4.160;2023-05-20T06:11:21;8.90;;;5.85;;
57635;SDS011;43465;50.728;4.160;2023-05-20T06:13:48;9.43;;;6.13;;
57635;SDS011;43465;50.728;4.160;2023-05-20T06:16:14;9.45;;;5.57;;
57635;SDS011;43465;50.728;4.160;2023-05-20T06:18:40;10.80;;;5.75;;
57635;SDS011;43465;50.728;4.160;2023-05-20T06:21:06;9.35;;;6.18;;
57635;SDS011;43465;50.728;4.160;2023-05-20T06:23:32;10.63;;;5.70;;
57635;SDS011;43465;50.728;4.160;2023-05-20T06:25:58;9.20;;;6.00;;
57635;SDS011;43465;50.728;4.160;2023-05-20T06:28:25;8.85;;;5.55;;
57635;SDS011;43465;50.728;4.160;2023-05-20T06:30:51;10.98;;;5.88;;
57635;SDS011;43465;50.728;4.160;2023-05-20T06:33:18;7.13;;;5.40;;
57635;SDS011;43465;50.728;4.160;2023-05-20T06:35:44;10.70;;;5.28;;
57635;SDS011;43465;50.728;4.160;2023-05-20T06:38:10;8.13;;;5.88;;
57635;SDS011;43465;50.728;4.160;2023-05-20T06:40:36;7.35;;;5.70;;
57635;SDS011;43465;50.728;4.160;2023-05-20T06:43:01;9.77;;;5.65;;
57635;SDS011;43465;50.728;4.160;2023-05-20T06:45:27;9.23;;;5.85;;
57635;SDS011;43465;50.728;4.160;2023-05-20T06:47:53;8.68;;;6.32;;
57635;SDS011;43465;50.728;4.160;2023-05-20T06:50:19;7.35;;;5.55;;
57635;SDS011;43465;50.728;4.160;2023-05-20T06:52:45;8.15;;;5.75;;
57635;SDS011;43465;50.728;4.160;2023-05-20T06:55:10;8.38;;;5.40;;
57635;SDS011;43465;50.728;4.160;2023-05-20T06:57:36;9.68;;;6.03;;
57635;SDS011;43465;50.728;4.160;2023-05-20T07:00:03;9.13;;;6.00;;
57635;SDS011;43465;50.728;4.160;2023-05-20T07:02:29;8.98;;;5.43;;
57635;SDS011;43465;50.728;4.160;2023-05-20T07:04:57;9.20;;;5.65;;
57635;SDS011;43465;50.728;4.160;2023-05-20T07:07:22;11.65;;;5.90;;
57635;SDS011;43465;50.728;4.160;2023-05-20T07:09:48;6.63;;;5.20;;
57635;SDS011;43465;50.728;4.160;2023-05-20T07:12:14;7.82;;;5.03;;
57635;SDS011;43465;50.728;4.160;2023-05-20T07:14:40;8.48;;;5.63;;
57635;SDS011;43465;50.728;4.160;2023-05-20T07:17:06;9.50;;;5.82;;
57635;SDS011;43465;50.728;4.160;2023-05-20T07:19:31;10.80;;;5.43;;
57635;SDS011;43465;50.728;4.160;2023-05-20T07:21:58;7.28;;;5.60;;
57635;SDS011;43465;50.728;4.160;2023-05-20T07:24:24;6.28;;;4.80;;
57635;SDS011;43465;50.728;4.160;2023-05-20T07:26:49;8.73;;;5.53;;
57635;SDS011;43465;50.728;4.160;2023-05-20T07:29:15;10.43;;;5.40;;
57635;SDS011;43465;50.728;4.160;2023-05-20T07:31:41;8.27;;;5.18;;
57635;SDS011;43465;50.728;4.160;2023-05-20T07:34:07;7.95;;;5.40;;
57635;SDS011;43465;50.728;4.160;2023-05-20T07:36:32;7.57;;;5.45;;
57635;SDS011;43465;50.728;4.160;2023-05-20T07:38:58;11.35;;;5.10;;
57635;SDS011;43465;50.728;4.160;2023-05-20T07:41:24;7.88;;;5.35;;
57635;SDS011;43465;50.728;4.160;2023-05-20T07:43:50;5.80;;;4.75;;
57635;SDS011;43465;50.728;4.160;2023-05-20T07:46:16;8.38;;;4.93;;
57635;SDS011;43465;50.728;4.160;2023-05-20T07:48:42;8.88;;;5.35;;
57635;SDS011;43465;50.728;4.160;2023-05-20T07:51:09;7.03;;;4.97;;
57635;SDS011;43465;50.728;4.160;2023-05-20T07:53:35;8.02;;;4.80;;
57635;SDS011;43465;50.728;4.160;2023-05-20T07:56:01;10.57;;;4.93;;
57635;SDS011;43465;50.728;4.160;2023-05-20T07:58:27;12.70;;;5.30;;
57635;SDS011;43465;50.728;4.160;2023-05-20T08:00:52;7.57;;;4.93;;
57635;SDS011;43465;50.728;4.160;2023-05-20T08:03:18;6.15;;;4.80;;
57635;SDS011;43465;50.728;4.160;2023-05-20T08:05:46;5.97;;;4.78;;
57635;SDS011;43465;50.728;4.160;2023-05-20T08:08:11;4.80;;;4.38;;
57635;SDS011;43465;50.728;4.160;2023-05-20T08:10:37;5.85;;;4.57;;
57635;SDS011;43465;50.728;4.160;2023-05-20T08:13:03;7.55;;;4.55;;
57635;SDS011;43465;50.728;4.160;2023-05-20T08:15:28;7.78;;;4.55;;
57635;SDS011;43465;50.728;4.160;2023-05-20T08:17:54;6.20;;;4.65;;
57635;SDS011;43465;50.728;4.160;2023-05-20T08:20:20;5.05;;;4.43;;
57635;SDS011;43465;50.728;4.160;2023-05-20T08:22:46;4.50;;;3.90;;
57635;SDS011;43465;50.728;4.160;2023-05-20T08:25:12;7.85;;;4.53;;
57635;SDS011;43465;50.728;4.160;2023-05-20T08:27:38;9.05;;;4.68;;
57635;SDS011;43465;50.728;4.160;2023-05-20T08:30:05;7.72;;;4.22;;
57635;SDS011;43465;50.728;4.160;2023-05-20T08:32:34;5.40;;;4.30;;
57635;SDS011;43465;50.728;4.160;2023-05-20T08:35:00;8.55;;;4.05;;
57635;SDS011;43465;50.728;4.160;2023-05-20T08:37:27;8.43;;;4.20;;
57635;SDS011;43465;50.728;4.160;2023-05-20T08:39:53;6.35;;;4.20;;
57635;SDS011;43465;50.728;4.160;2023-05-20T08:42:23;10.65;;;4.57;;
57635;SDS011;43465;50.728;4.160;2023-05-20T08:44:50;5.00;;;4.28;;
57635;SDS011;43465;50.728;4.160;2023-05-20T08:47:18;5.85;;;4.43;;
57635;SDS011;43465;50.728;4.160;2023-05-20T08:49:46;8.43;;;4.28;;
57635;SDS011;43465;50.728;4.160;2023-05-20T08:52:12;8.05;;;3.85;;
57635;SDS011;43465;50.728;4.160;2023-05-20T08:54:44;10.13;;;3.75;;
57635;SDS011;43465;50.728;4.160;2023-05-20T08:57:12;6.00;;;3.70;;
57635;SDS011;43465;50.728;4.160;2023-05-20T08:59:47;7.18;;;3.70;;
57635;SDS011;43465;50.728;4.160;2023-05-20T09:02:15;4.35;;;3.28;;
57635;SDS011;43465;50.728;4.160;2023-05-20T09:04:41;5.75;;;3.33;;
57635;SDS011;43465;50.728;4.160;2023-05-20T09:07:07;6.25;;;3.40;;
57635;SDS011;43465;50.728;4.160;2023-05-20T09:09:33;7.07;;;3.38;;
57635;SDS011;43465;50.728;4.160;2023-05-20T09:12:00;5.95;;;3.78;;
57635;SDS011;43465;50.728;4.160;2023-05-20T09:14:28;8.48;;;3.75;;
57635;SDS011;43465;50.728;4.160;2023-05-20T09:16:54;5.40;;;3.58;;
57635;SDS011;43465;50.728;4.160;2023-05-20T09:19:23;10.13;;;3.63;;
57635;SDS011;43465;50.728;4.160;2023-05-20T09:21:52;9.75;;;3.70;;
57635;SDS011;43465;50.728;4.160;2023-05-20T09:24:22;7.80;;;3.30;;
57635;SDS011;43465;50.728;4.160;2023-05-20T09:26:50;9.15;;;4.28;;
57635;SDS011;43465;50.728;4.160;2023-05-20T09:29:16;5.32;;;3.40;;
57635;SDS011;43465;50.728;4.160;2023-05-20T09:31:45;5.68;;;3.22;;
57635;SDS011;43465;50.728;4.160;2023-05-20T09:34:11;5.32;;;3.33;;
57635;SDS011;43465;50.728;4.160;2023-05-20T09:36:38;4.68;;;3.42;;
57635;SDS011;43465;50.728;4.160;2023-05-20T09:39:05;3.15;;;2.85;;
57635;SDS011;43465;50.728;4.160;2023-05-20T09:41:42;3.83;;;2.90;;
57635;SDS011;43465;50.728;4.160;2023-05-20T09:44:31;6.53;;;3.17;;
57635;SDS011;43465;50.728;4.160;2023-05-20T09:46:58;6.13;;;3.63;;
57635;SDS011;43465;50.728;4.160;2023-05-20T09:49:25;4.38;;;2.83;;
57635;SDS011;43465;50.728;4.160;2023-05-20T09:51:52;8.43;;;3.17;;
57635;SDS011;43465;50.728;4.160;2023-05-20T09:54:19;4.43;;;2.72;;
57635;SDS011;43465;50.728;4.160;2023-05-20T09:56:46;4.15;;;3.10;;
57635;SDS011;43465;50.728;4.160;2023-05-20T09:59:12;4.57;;;2.92;;
57635;SDS011;43465;50.728;4.160;2023-05-20T10:01:43;4.88;;;3.28;;
57635;SDS011;43465;50.728;4.160;2023-05-20T10:04:09;6.63;;;3.03;;
57635;SDS011;43465;50.728;4.160;2023-05-20T10:12:33;5.95;;;3.42;;
57635;SDS011;43465;50.728;4.160;2023-05-20T10:20:27;3.30;;;2.80;;
57635;SDS011;43465;50.728;4.160;2023-05-20T10:22:56;3.40;;;3.00;;
57635;SDS011;43465;50.728;4.160;2023-05-20T10:25:26;6.80;;;3.17;;
57635;SDS011;43465;50.728;4.160;2023-05-20T10:28:02;6.68;;;3.10;;
57635;SDS011;43465;50.728;4.160;2023-05-20T10:30:31;4.25;;;2.80;;
57635;SDS011;43465;50.728;4.160;2023-05-20T10:33:01;7.68;;;3.35;;
57635;SDS011;43465;50.728;4.160;2023-05-20T10:35:28;5.93;;;3.20;;
57635;SDS011;43465;50.728;4.160;2023-05-20T10:40:36;6.00;;;3.25;;
57635;SDS011;43465;50.728;4.160;2023-05-20T10:43:08;4.45;;;3.05;;
57635;SDS011;43465;50.728;4.160;2023-05-20T10:45:35;7.97;;;3.15;;
57635;SDS011;43465;50.728;4.160;2023-05-20T10:48:27;8.70;;;3.50;;
57635;SDS011;43465;50.728;4.160;2023-05-20T10:50:59;5.82;;;2.80;;
57635;SDS011;43465;50.728;4.160;2023-05-20T10:53:28;7.07;;;3.22;;
57635;SDS011;43465;50.728;4.160;2023-05-20T10:56:02;5.57;;;3.28;;
57635;SDS011;43465;50.728;4.160;2023-05-20T10:58:35;5.22;;;3.00;;
57635;SDS011;43465;50.728;4.160;2023-05-20T11:01:02;5.00;;;2.90;;
57635;SDS011;43465;50.728;4.160;2023-05-20T11:03:27;3.25;;;2.95;;
57635;SDS011;43465;50.728;4.160;2023-05-20T11:05:54;6.40;;;3.03;;
57635;SDS011;43465;50.728;4.160;2023-05-20T11:08:19;4.72;;;3.13;;
57635;SDS011;43465;50.728;4.160;2023-05-20T11:10:45;3.67;;;3.33;;
57635;SDS011;43465;50.728;4.160;2023-05-20T11:13:11;5.20;;;3.10;;
57635;SDS011;43465;50.728;4.160;2023-05-20T11:15:40;3.35;;;3.08;;
57635;SDS011;43465;50.728;4.160;2023-05-20T11:18:06;3.67;;;3.38;;
57635;SDS011;43465;50.728;4.160;2023-05-20T11:20:34;5.57;;;3.08;;
57635;SDS011;43465;50.728;4.160;2023-05-20T11:23:00;6.82;;;3.28;;
57635;SDS011;43465;50.728;4.160;2023-05-20T11:25:27;5.05;;;3.28;;
57635;SDS011;43465;50.728;4.160;2023-05-20T11:27:53;4.75;;;3.33;;
57635;SDS011;43465;50.728;4.160;2023-05-20T11:30:19;6.18;;;2.80;;
57635;SDS011;43465;50.728;4.160;2023-05-20T11:33:00;10.73;;;3.60;;
57635;SDS011;43465;50.728;4.160;2023-05-20T11:35:28;4.85;;;3.53;;
57635;SDS011;43465;50.728;4.160;2023-05-20T11:38:03;3.75;;;2.90;;
57635;SDS011;43465;50.728;4.160;2023-05-20T11:40:31;4.90;;;3.10;;
57635;SDS011;43465;50.728;4.160;2023-05-20T11:43:01;5.72;;;3.30;;
57635;SDS011;43465;50.728;4.160;2023-05-20T11:45:40;4.10;;;3.10;;
57635;SDS011;43465;50.728;4.160;2023-05-20T11:48:07;5.15;;;3.05;;
57635;SDS011;43465;50.728;4.160;2023-05-20T11:50:34;6.22;;;3.17;;
57635;SDS011;43465;50.728;4.160;2023-05-20T11:53:03;3.85;;;2.80;;
57635;SDS011;43465;50.728;4.160;2023-05-20T11:55:30;5.05;;;2.88;;
57635;SDS011;43465;50.728;4.160;2023-05-20T11:57:57;6.47;;;3.20;;
57635;SDS011;43465;50.728;4.160;2023-05-20T12:00:24;4.35;;;3.05;;
57635;SDS011;43465;50.728;4.160;2023-05-20T12:02:50;3.85;;;2.88;;
57635;SDS011;43465;50.728;4.160;2023-05-20T12:05:15;5.28;;;3.17;;
57635;SDS011;43465;50.728;4.160;2023-05-20T12:07:42;5.55;;;3.50;;
57635;SDS011;43465;50.728;4.160;2023-05-20T12:10:08;6.70;;;3.10;;
57635;SDS011;43465;50.728;4.160;2023-05-20T12:12:35;6.57;;;3.15;;
57635;SDS011;43465;50.728;4.160;2023-05-20T12:15:04;3.72;;;3.13;;
57635;SDS011;43465;50.728;4.160;2023-05-20T12:17:33;5.07;;;2.90;;
57635;SDS011;43465;50.728;4.160;2023-05-20T12:20:08;7.30;;;3.10;;
57635;SDS011;43465;50.728;4.160;2023-05-20T12:22:34;4.03;;;3.28;;
57635;SDS011;43465;50.728;4.160;2023-05-20T12:25:00;3.83;;;3.13;;
57635;SDS011;43465;50.728;4.160;2023-05-20T12:27:25;3.58;;;2.80;;
57635;SDS011;43465;50.728;4.160;2023-05-20T12:29:52;5.35;;;2.80;;
57635;SDS011;43465;50.728;4.160;2023-05-20T12:32:17;3.20;;;2.90;;
57635;SDS011;43465;50.728;4.160;2023-05-20T12:34:44;5.22;;;3.13;;
57635;SDS011;43465;50.728;4.160;2023-05-20T12:37:10;7.25;;;3.10;;
57635;SDS011;43465;50.728;4.160;2023-05-20T12:39:36;7.25;;;3.10;;
57635;SDS011;43465;50.728;4.160;2023-05-20T12:42:02;3.88;;;3.03;;
57635;SDS011;43465;50.728;4.160;2023-05-20T12:44:27;4.63;;;3.08;;
57635;SDS011;43465;50.728;4.160;2023-05-20T12:46:53;3.72;;;3.25;;
57635;SDS011;43465;50.728;4.160;2023-05-20T12:49:19;3.53;;;3.10;;
57635;SDS011;43465;50.728;4.160;2023-05-20T12:51:45;7.97;;;3.22;;
57635;SDS011;43465;50.728;4.160;2023-05-20T12:54:11;3.55;;;2.40;;
57635;SDS011;43465;50.728;4.160;2023-05-20T12:56:36;3.55;;;3.25;;
57635;SDS011;43465;50.728;4.160;2023-05-20T12:59:03;4.88;;;3.25;;
57635;SDS011;43465;50.728;4.160;2023-05-20T13:01:28;4.70;;;3.22;;
57635;SDS011;43465;50.728;4.160;2023-05-20T13:03:54;3.30;;;3.00;;
57635;SDS011;43465;50.728;4.160;2023-05-20T13:06:20;3.15;;;2.45;;
57635;SDS011;43465;50.728;4.160;2023-05-20T13:08:45;3.50;;;3.20;;
57635;SDS011;43465;50.728;4.160;2023-05-20T13:11:11;6.15;;;3.40;;
57635;SDS011;43465;50.728;4.160;2023-05-20T13:13:37;4.70;;;3.25;;
57635;SDS011;43465;50.728;4.160;2023-05-20T13:16:02;5.40;;;2.53;;
57635;SDS011;43465;50.728;4.160;2023-05-20T13:18:28;3.47;;;3.17;;
57635;SDS011;43465;50.728;4.160;2023-05-20T13:20:54;5.18;;;3.20;;
57635;SDS011;43465;50.728;4.160;2023-05-20T13:23:20;5.28;;;2.90;;
57635;SDS011;43465;50.728;4.160;2023-05-20T13:25:45;3.38;;;3.08;;
57635;SDS011;43465;50.728;4.160;2023-05-20T13:28:11;5.63;;;3.45;;
57635;SDS011;43465;50.728;4.160;2023-05-20T13:30:40;4.50;;;3.10;;
57635;SDS011;43465;50.728;4.160;2023-05-20T13:33:06;4.57;;;3.28;;
57635;SDS011;43465;50.728;4.160;2023-05-20T13:35:32;7.03;;;2.88;;
57635;SDS011;43465;50.728;4.160;2023-05-20T13:37:58;2.63;;;2.42;;
57635;SDS011;43465;50.728;4.160;2023-05-20T13:40:23;3.40;;;2.63;;
57635;SDS011;43465;50.728;4.160;2023-05-20T13:42:49;3.50;;;2.53;;
57635;SDS011;43465;50.728;4.160;2023-05-20T13:45:15;3.85;;;2.55;;
57635;SDS011;43465;50.728;4.160;2023-05-20T13:47:42;4.22;;;2.92;;
57635;SDS011;43465;50.728;4.160;2023-05-20T13:50:08;4.45;;;2.80;;
57635;SDS011;43465;50.728;4.160;2023-05-20T13:52:34;3.72;;;2.85;;
57635;SDS011;43465;50.728;4.160;2023-05-20T13:55:00;4.72;;;2.85;;
57635;SDS011;43465;50.728;4.160;2023-05-20T13:57:25;4.28;;;2.38;;
57635;SDS011;43465;50.728;4.160;2023-05-20T13:59:51;3.97;;;2.63;;
57635;SDS011;43465;50.728;4.160;2023-05-20T14:02:17;4.72;;;2.78;;
57635;SDS011;43465;50.728;4.160;2023-05-20T14:04:43;6.13;;;2.75;;
57635;SDS011;43465;50.728;4.160;2023-05-20T14:07:10;4.10;;;2.88;;
57635;SDS011;43465;50.728;4.160;2023-05-20T14:09:37;4.22;;;2.53;;
57635;SDS011;43465;50.728;4.160;2023-05-20T14:12:03;4.07;;;3.03;;
57635;SDS011;43465;50.728;4.160;2023-05-20T14:14:29;3.10;;;2.72;;
57635;SDS011;43465;50.728;4.160;2023-05-20T14:16:55;4.68;;;2.80;;
57635;SDS011;43465;50.728;4.160;2023-05-20T14:19:20;8.48;;;2.50;;
57635;SDS011;43465;50.728;4.160;2023-05-20T14:21:46;3.22;;;2.38;;
57635;SDS011;43465;50.728;4.160;2023-05-20T14:24:12;8.52;;;3.20;;
57635;SDS011;43465;50.728;4.160;2023-05-20T14:26:37;5.97;;;2.63;;
57635;SDS011;43465;50.728;4.160;2023-05-20T14:29:03;3.97;;;2.60;;
57635;SDS011;43465;50.728;4.160;2023-05-20T14:31:28;3.50;;;2.53;;
57635;SDS011;43465;50.728;4.160;2023-05-20T14:33:54;2.97;;;2.67;;
57635;SDS011;43465;50.728;4.160;2023-05-20T14:36:20;2.58;;;2.38;;
57635;SDS011;43465;50.728;4.160;2023-05-20T14:38:46;3.00;;;2.58;;
57635;SDS011;43465;50.728;4.160;2023-05-20T14:41:11;2.78;;;2.35;;
57635;SDS011;43465;50.728;4.160;2023-05-20T14:43:37;4.03;;;2.90;;
57635;SDS011;43465;50.728;4.160;2023-05-20T14:46:03;4.38;;;2.78;;
57635;SDS011;43465;50.728;4.160;2023-05-20T14:48:28;5.95;;;2.80;;
57635;SDS011;43465;50.728;4.160;2023-05-20T14:50:54;3.45;;;2.38;;
57635;SDS011;43465;50.728;4.160;2023-05-20T14:53:21;3.05;;;2.30;;
57635;SDS011;43465;50.728;4.160;2023-05-20T14:55:47;3.50;;;2.33;;
57635;SDS011;43465;50.728;4.160;2023-05-20T14:58:12;4.97;;;2.65;;
57635;SDS011;43465;50.728;4.160;2023-05-20T15:00:38;3.70;;;2.65;;